createdAt,value
2017-09-25T00:00:34.554Z,99.20
2017-09-25T00:03:02.421Z,99.20
2017-09-25T00:05:30.498Z,99.20
2017-09-25T00:07:58.054Z,99.10
2017-09-25T00:10:25.653Z,99.00
2017-09-25T00:12:53.998Z,99.10
2017-09-25T00:15:21.601Z,99.10
2017-09-25T00:17:49.967Z,98.90
2017-09-25T00:20:18.322Z,98.90
2017-09-25T00:22:45.889Z,98.90
2017-09-25T00:25:13.465Z,98.90
2017-09-25T00:27:41.793Z,98.90
2017-09-25T00:30:09.660Z,98.80
2017-09-25T00:32:37.221Z,99.00
2017-09-25T00:35:04.788Z,99.00
2017-09-25T00:37:32.392Z,99.00
2017-09-25T00:40:00.722Z,98.90
2017-09-25T00:42:28.332Z,98.90
2017-09-25T00:44:56.747Z,99.00
2017-09-25T00:47:25.288Z,99.00
2017-09-25T00:49:52.854Z,99.10
2017-09-25T00:52:22.001Z,98.90
2017-09-25T00:54:49.579Z,99.00
2017-09-25T00:57:17.299Z,99.00
2017-09-25T00:59:56.636Z,98.90
2017-09-25T01:02:27.387Z,98.90
2017-09-25T01:05:00.747Z,98.80
2017-09-25T01:07:28.601Z,98.80
2017-09-25T01:09:56.943Z,98.80
2017-09-25T01:12:24.511Z,98.80
2017-09-25T01:14:52.085Z,98.50
2017-09-25T01:17:20.506Z,98.50
2017-09-25T01:19:48.073Z,98.50
2017-09-25T01:22:15.640Z,98.50
2017-09-25T01:24:43.220Z,98.60
2017-09-25T01:27:10.788Z,98.60
2017-09-25T01:29:38.737Z,98.70
2017-09-25T01:32:06.315Z,99.10
2017-09-25T01:34:33.895Z,98.50
2017-09-25T01:37:02.251Z,98.60
2017-09-25T01:39:29.850Z,98.60
2017-09-25T01:41:57.418Z,99.20
2017-09-25T01:44:24.971Z,99.10
2017-09-25T01:46:52.867Z,99.20
2017-09-25T01:49:20.461Z,99.20
2017-09-25T01:51:48.808Z,99.10
2017-09-25T01:54:16.445Z,99.10
2017-09-25T01:56:44.014Z,99.20
2017-09-25T01:59:11.587Z,99.10
2017-09-25T02:01:39.161Z,99.00
2017-09-25T02:04:06.735Z,99.10
2017-09-25T02:06:35.077Z,98.90
2017-09-25T02:09:02.647Z,98.90
2017-09-25T02:11:30.199Z,98.90
2017-09-25T02:13:58.041Z,98.80
2017-09-25T02:16:25.608Z,98.90
2017-09-25T02:18:53.194Z,98.80
2017-09-25T02:21:21.553Z,98.80
2017-09-25T02:23:49.121Z,98.70
2017-09-25T02:26:16.686Z,98.70
2017-09-25T02:28:44.244Z,98.70
2017-09-25T02:31:11.821Z,98.70
2017-09-25T02:33:40.175Z,98.70
2017-09-25T02:36:07.757Z,98.70
2017-09-25T02:38:35.318Z,98.60
2017-09-25T02:41:03.932Z,98.60
2017-09-25T02:43:32.263Z,98.40
2017-09-25T02:45:59.821Z,98.40
2017-09-25T02:48:27.391Z,98.30
2017-09-25T02:50:54.967Z,98.30
2017-09-25T02:53:22.585Z,98.20
2017-09-25T02:55:50.150Z,98.30
2017-09-25T02:58:17.723Z,98.60
2017-09-25T03:00:45.296Z,98.40
2017-09-25T03:03:13.936Z,98.30
2017-09-25T03:05:41.510Z,98.30
2017-09-25T03:08:09.072Z,98.30
2017-09-25T03:10:36.646Z,98.30
2017-09-25T03:13:04.223Z,98.10
2017-09-25T03:15:32.581Z,98.30
2017-09-25T03:18:00.168Z,98.20
2017-09-25T03:20:27.742Z,98.20
2017-09-25T03:22:55.310Z,98.40
2017-09-25T03:25:22.884Z,98.30
2017-09-25T03:27:50.441Z,98.20
2017-09-25T03:30:18.017Z,98.20
2017-09-25T03:32:45.598Z,98.10
2017-09-25T03:35:13.446Z,98.10
2017-09-25T03:37:41.002Z,98.10
2017-09-25T03:40:08.574Z,98.20
2017-09-25T03:42:36.154Z,98.20
2017-09-25T03:45:04.501Z,98.20
2017-09-25T03:47:32.119Z,98.20
2017-09-25T03:49:59.704Z,98.20
2017-09-25T03:52:27.270Z,98.20
2017-09-25T03:54:55.621Z,98.20
2017-09-25T03:57:23.200Z,98.40
2017-09-25T03:59:50.808Z,98.20
2017-09-25T04:02:18.387Z,98.30
2017-09-25T04:04:45.961Z,98.20
2017-09-25T04:07:13.549Z,98.30
2017-09-25T04:09:41.115Z,98.30
2017-09-25T04:12:08.694Z,98.30
2017-09-25T04:14:37.043Z,98.10
2017-09-25T04:17:04.606Z,98.10
2017-09-25T04:19:32.565Z,98.10
2017-09-25T04:22:00.167Z,98.00
2017-09-25T04:24:28.490Z,98.20
2017-09-25T04:26:56.079Z,98.20
2017-09-25T04:29:24.501Z,98.30
2017-09-25T04:31:52.059Z,98.20
2017-09-25T04:34:19.618Z,98.10
2017-09-25T04:36:47.206Z,98.00
2017-09-25T04:39:15.545Z,98.00
2017-09-25T04:41:43.122Z,98.10
2017-09-25T04:44:10.701Z,98.00
2017-09-25T04:46:38.577Z,98.00
2017-09-25T04:49:06.152Z,98.00
2017-09-25T04:51:33.701Z,98.00
2017-09-25T04:54:01.291Z,98.10
2017-09-25T04:56:29.708Z,98.10
2017-09-25T04:58:57.291Z,98.10
2017-09-25T05:01:24.857Z,98.20
2017-09-25T05:03:52.452Z,98.20
2017-09-25T05:06:20.781Z,98.20
2017-09-25T05:08:48.367Z,98.20
2017-09-25T05:11:15.942Z,98.20
2017-09-25T05:13:44.297Z,98.30
2017-09-25T05:16:11.868Z,98.40
2017-09-25T05:18:39.717Z,98.30
2017-09-25T05:21:07.294Z,98.20
2017-09-25T05:23:35.130Z,98.50
2017-09-25T05:26:02.789Z,98.60
2017-09-25T05:28:30.371Z,98.80
2017-09-25T05:30:57.928Z,98.70
2017-09-25T05:33:25.491Z,98.70
2017-09-25T05:35:53.078Z,98.70
2017-09-25T05:38:20.660Z,98.70
2017-09-25T05:40:48.248Z,98.70
2017-09-25T05:43:15.816Z,98.80
2017-09-25T05:45:43.907Z,98.90
2017-09-25T05:48:12.234Z,99.20
2017-09-25T05:50:39.804Z,99.10
2017-09-25T05:53:07.389Z,99.00
2017-09-25T05:55:34.998Z,99.10
2017-09-25T05:58:02.569Z,99.20
2017-09-25T06:00:30.133Z,99.10
2017-09-25T06:02:57.704Z,99.20
2017-09-25T06:05:25.291Z,99.30
2017-09-25T06:07:53.951Z,99.90
2017-09-25T06:10:21.522Z,99.60
2017-09-25T06:12:49.104Z,99.70
2017-09-25T06:15:17.431Z,99.90
2017-09-25T06:17:44.992Z,99.90
2017-09-25T06:20:13.340Z,99.90
2017-09-25T06:22:40.903Z,99.90
2017-09-25T06:25:08.495Z,99.90
2017-09-25T06:27:36.046Z,99.90
2017-09-25T06:30:03.652Z,99.90
2017-09-25T06:32:31.975Z,99.90
2017-09-25T06:34:59.552Z,99.90
2017-09-25T06:37:27.114Z,99.90
2017-09-25T06:39:54.981Z,99.90
2017-09-25T06:42:22.582Z,99.90
2017-09-25T06:44:50.907Z,99.90
2017-09-25T06:47:18.478Z,99.90
2017-09-25T06:49:46.041Z,99.90
2017-09-25T06:52:13.626Z,99.90
2017-09-25T06:54:41.980Z,99.90
2017-09-25T06:57:09.557Z,99.90
2017-09-25T06:59:37.905Z,99.90
2017-09-25T07:02:05.855Z,99.90
2017-09-25T07:04:33.426Z,99.90
2017-09-25T07:07:01.014Z,99.90
2017-09-25T07:09:28.600Z,99.90
2017-09-25T07:11:56.189Z,99.90
2017-09-25T07:14:23.795Z,99.90
2017-09-25T07:16:52.129Z,99.90
2017-09-25T07:19:19.707Z,99.90
2017-09-25T07:21:47.268Z,99.90
2017-09-25T07:24:14.873Z,99.90
2017-09-25T07:26:42.471Z,99.90
2017-09-25T07:29:10.356Z,99.90
2017-09-25T07:31:37.956Z,99.90
2017-09-25T07:34:06.291Z,99.90
2017-09-25T07:36:33.926Z,99.90
2017-09-25T07:39:01.530Z,99.90
2017-09-25T07:41:29.116Z,99.90
2017-09-25T07:43:56.679Z,99.90
2017-09-25T07:46:24.255Z,99.90
2017-09-25T07:48:51.829Z,99.90
2017-09-25T07:51:19.726Z,99.90
2017-09-25T07:53:47.300Z,99.90
2017-09-25T07:56:15.657Z,99.90
2017-09-25T07:58:43.238Z,99.90
2017-09-25T08:01:11.588Z,99.90
2017-09-25T08:03:39.408Z,99.90
2017-09-25T08:06:06.995Z,99.90
2017-09-25T08:08:34.576Z,99.90
2017-09-25T08:11:02.159Z,99.90
2017-09-25T08:13:30.778Z,99.90
2017-09-25T08:15:58.365Z,99.90
2017-09-25T08:18:25.934Z,99.90
2017-09-25T08:20:53.514Z,99.90
2017-09-25T08:23:21.875Z,99.90
2017-09-25T08:25:49.475Z,99.90
2017-09-25T08:28:17.075Z,99.90
2017-09-25T08:30:44.922Z,99.90
2017-09-25T08:33:12.485Z,99.90
2017-09-25T08:35:40.062Z,99.90
2017-09-25T08:38:07.678Z,99.80
2017-09-25T08:40:35.256Z,99.90
2017-09-25T08:43:02.854Z,99.60
2017-09-25T08:45:30.436Z,98.90
2017-09-25T08:47:58.085Z,98.80
2017-09-25T08:50:25.683Z,99.60
2017-09-25T08:52:53.689Z,99.00
2017-09-25T08:55:22.038Z,98.00
2017-09-25T08:57:49.629Z,98.00
2017-09-25T09:00:18.003Z,98.30
2017-09-25T09:02:46.353Z,97.10
2017-09-25T09:05:13.966Z,97.10
2017-09-25T09:07:41.552Z,97.60
2017-09-25T09:10:09.179Z,96.30
2017-09-25T09:12:36.762Z,95.60
2017-09-25T09:15:04.366Z,95.30
2017-09-25T09:17:31.949Z,94.10
2017-09-25T09:19:59.575Z,93.30
2017-09-25T09:22:27.165Z,92.90
2017-09-25T09:24:54.759Z,93.20
2017-09-25T09:27:22.346Z,92.70
2017-09-25T09:29:49.922Z,93.10
2017-09-25T09:32:17.507Z,91.80
2017-09-25T09:34:45.868Z,92.60
2017-09-25T09:37:14.258Z,92.60
2017-09-25T09:39:42.587Z,92.20
2017-09-25T09:42:10.174Z,92.10
2017-09-25T09:44:37.768Z,91.60
2017-09-25T09:47:05.667Z,91.70
2017-09-25T09:49:33.250Z,88.90
2017-09-25T09:52:00.826Z,87.30
2017-09-25T09:54:28.412Z,88.80
2017-09-25T09:56:56.013Z,84.80
2017-09-25T09:59:23.611Z,84.20
2017-09-25T10:01:51.950Z,82.50
2017-09-25T10:04:19.529Z,82.50
2017-09-25T10:06:47.086Z,76.30
2017-09-25T10:09:14.972Z,77.00
2017-09-25T10:11:42.658Z,79.60
2017-09-25T10:14:10.263Z,74.20
2017-09-25T10:16:37.854Z,73.20
2017-09-25T10:19:06.195Z,73.40
2017-09-25T10:21:33.775Z,73.50
2017-09-25T10:24:01.344Z,71.80
2017-09-25T10:26:29.684Z,69.80
2017-09-25T10:28:57.275Z,69.70
2017-09-25T10:31:25.932Z,67.80
2017-09-25T10:33:53.509Z,67.00
2017-09-25T10:36:21.074Z,66.50
2017-09-25T10:38:49.425Z,68.70
2017-09-25T10:41:17.011Z,68.20
2017-09-25T10:43:45.386Z,63.20
2017-09-25T10:46:12.980Z,63.20
2017-09-25T10:48:40.583Z,63.10
2017-09-25T10:51:08.915Z,62.80
2017-09-25T10:53:36.892Z,63.00
2017-09-25T10:56:04.474Z,63.50
2017-09-25T10:58:32.041Z,62.40
2017-09-25T11:00:59.638Z,62.50
2017-09-25T11:03:27.964Z,60.90
2017-09-25T11:05:55.547Z,60.90
2017-09-25T11:08:23.917Z,63.10
2017-09-25T11:10:51.492Z,62.30
2017-09-25T11:13:19.061Z,59.80
2017-09-25T11:15:47.713Z,61.80
2017-09-25T11:18:15.301Z,61.80
2017-09-25T11:20:43.642Z,62.40
2017-09-25T11:23:11.215Z,61.50
2017-09-25T11:25:38.790Z,60.10
2017-09-25T11:28:06.373Z,56.50
2017-09-25T11:30:34.725Z,58.70
2017-09-25T11:33:02.580Z,58.70
2017-09-25T11:35:30.171Z,57.70
2017-09-25T11:37:57.741Z,57.10
2017-09-25T11:40:25.342Z,54.20
2017-09-25T11:42:52.900Z,55.60
2017-09-25T11:45:20.790Z,54.60
2017-09-25T11:47:48.385Z,56.50
2017-09-25T11:50:15.955Z,55.00
2017-09-25T11:52:43.550Z,54.30
2017-09-25T11:55:11.134Z,53.80
2017-09-25T11:57:38.711Z,54.30
2017-09-25T12:00:07.045Z,53.60
2017-09-25T12:02:34.626Z,53.60
2017-09-25T12:05:02.332Z,54.50
2017-09-25T12:07:30.259Z,55.60
2017-09-25T12:09:57.825Z,55.90
2017-09-25T12:12:25.413Z,55.10
2017-09-25T12:14:52.990Z,54.40
2017-09-25T12:17:20.558Z,54.60
2017-09-25T12:19:48.122Z,53.50
2017-09-25T12:22:15.698Z,54.50
2017-09-25T12:24:43.316Z,55.80
2017-09-25T12:27:10.879Z,54.00
2017-09-25T12:29:38.493Z,54.30
2017-09-25T12:32:06.059Z,53.60
2017-09-25T12:34:34.722Z,55.80
2017-09-25T12:37:02.303Z,55.40
2017-09-25T12:39:29.877Z,56.20
2017-09-25T12:41:58.221Z,56.70
2017-09-25T12:44:25.786Z,56.70
2017-09-25T12:47:02.559Z,56.50
2017-09-25T12:49:30.176Z,55.60
2017-09-25T12:51:57.776Z,55.50
2017-09-25T12:54:25.351Z,54.60
2017-09-25T12:56:52.913Z,53.70
2017-09-25T12:59:20.475Z,51.40
2017-09-25T13:01:49.113Z,51.80
2017-09-25T13:04:16.671Z,51.80
2017-09-25T13:07:43.380Z,52.70
2017-09-25T13:10:12.333Z,52.70
2017-09-25T13:12:40.517Z,52.70
2017-09-25T13:15:08.688Z,49.10
2017-09-25T13:17:36.866Z,49.50
2017-09-25T13:20:05.046Z,47.80
2017-09-25T13:22:33.605Z,46.80
2017-09-25T13:25:01.767Z,46.40
2017-09-25T13:27:29.929Z,48.40
2017-09-25T13:29:58.098Z,47.10
2017-09-25T13:32:26.291Z,46.10
2017-09-25T13:34:54.467Z,46.70
2017-09-25T13:37:22.655Z,46.30
2017-09-25T13:39:50.881Z,45.70
2017-09-25T13:42:19.055Z,46.60
2017-09-25T13:44:47.233Z,48.70
2017-09-25T13:47:15.426Z,47.30
2017-09-25T13:49:43.579Z,46.30
2017-09-25T13:52:11.752Z,45.00
2017-09-25T13:54:39.907Z,44.40
2017-09-25T13:57:08.072Z,44.70
2017-09-25T14:04:44.042Z,47.90
2017-09-25T14:07:12.206Z,48.20
2017-09-25T14:09:40.375Z,47.30
2017-09-25T14:12:08.543Z,46.60
2017-09-25T14:14:36.719Z,46.00
2017-09-25T14:17:04.900Z,42.90
2017-09-25T14:19:33.066Z,41.00
2017-09-25T14:22:01.253Z,40.80
2017-09-25T14:24:29.440Z,40.20
2017-09-25T14:26:58.375Z,41.50
2017-09-25T14:29:26.536Z,41.50
2017-09-25T14:31:54.735Z,41.30
2017-09-25T14:34:22.904Z,41.40
2017-09-25T14:36:51.088Z,41.10
2017-09-25T14:39:19.265Z,40.00
2017-09-25T14:41:47.434Z,38.10
2017-09-25T14:44:15.586Z,37.10
2017-09-25T14:46:43.776Z,34.60
2017-09-25T14:49:12.049Z,34.80
2017-09-25T14:51:40.205Z,34.30
2017-09-25T14:54:08.383Z,31.80
2017-09-25T14:56:36.561Z,32.50
2017-09-25T14:59:04.770Z,31.60
2017-09-25T15:01:32.961Z,30.90
2017-09-25T15:04:01.909Z,32.60
2017-09-25T15:06:30.072Z,32.60
2017-09-25T15:08:58.242Z,31.90
2017-09-25T15:11:26.437Z,32.80
2017-09-25T15:13:54.608Z,32.10
2017-09-25T15:16:22.771Z,33.30
2017-09-25T15:18:50.951Z,32.90
2017-09-25T15:21:19.115Z,32.60
2017-09-25T15:23:47.357Z,33.30
2017-09-25T15:26:15.544Z,33.40
2017-09-25T15:28:43.752Z,34.00
2017-09-25T15:31:11.925Z,35.20
2017-09-25T15:33:40.580Z,36.50
2017-09-25T15:36:08.759Z,38.50
2017-09-25T15:38:37.274Z,39.30
2017-09-25T15:41:05.463Z,40.00
2017-09-25T15:43:34.457Z,42.80
2017-09-25T15:46:03.402Z,43.50
2017-09-25T15:48:31.644Z,43.50
2017-09-25T15:50:59.829Z,43.90
2017-09-25T15:53:28.026Z,43.70
2017-09-25T15:55:56.322Z,43.80
2017-09-25T15:58:24.503Z,43.70
2017-09-25T16:00:52.700Z,43.60
2017-09-25T16:03:20.906Z,44.00
2017-09-25T16:05:49.262Z,43.70
2017-09-25T16:08:17.536Z,44.70
2017-09-25T16:10:45.729Z,44.60
2017-09-25T16:13:13.999Z,45.90
2017-09-25T16:15:42.184Z,46.20
2017-09-25T16:18:11.120Z,47.50
2017-09-25T16:20:39.309Z,48.40
2017-09-25T16:23:07.526Z,49.60
2017-09-25T16:25:35.996Z,49.70
2017-09-25T16:28:04.185Z,51.10
2017-09-25T16:30:32.383Z,51.80
2017-09-25T16:33:01.389Z,53.80
2017-09-25T16:35:29.575Z,53.20
2017-09-25T16:37:57.754Z,54.60
2017-09-25T16:40:25.921Z,55.60
2017-09-25T16:42:54.124Z,56.20
2017-09-25T16:45:22.382Z,57.30
2017-09-25T16:47:50.559Z,57.50
2017-09-25T16:50:19.869Z,58.20
2017-09-25T16:52:48.081Z,58.90
2017-09-25T16:55:17.039Z,58.90
2017-09-25T16:57:45.198Z,58.90
2017-09-25T17:00:13.359Z,59.30
2017-09-25T17:02:41.597Z,60.30
2017-09-25T17:05:09.797Z,61.20
2017-09-25T17:07:37.991Z,61.70
2017-09-25T17:10:06.185Z,61.50
2017-09-25T17:12:34.653Z,63.50
2017-09-25T17:15:02.819Z,64.10
2017-09-25T17:17:31.036Z,64.70
2017-09-25T17:20:00.036Z,66.70
2017-09-25T17:22:29.008Z,67.40
2017-09-25T17:24:57.999Z,67.60
2017-09-25T17:27:27.016Z,68.40
2017-09-25T17:29:55.206Z,68.30
2017-09-25T17:32:23.569Z,68.90
2017-09-25T17:34:51.810Z,69.40
2017-09-25T17:37:20.023Z,69.90
2017-09-25T17:39:48.195Z,70.40
2017-09-25T17:42:16.407Z,71.00
2017-09-25T17:44:44.607Z,72.10
2017-09-25T17:47:12.900Z,72.20
2017-09-25T17:49:41.101Z,72.80
2017-09-25T17:52:09.303Z,72.90
2017-09-25T17:54:38.259Z,74.40
2017-09-25T17:57:06.661Z,74.30
2017-09-25T17:59:35.897Z,75.10
2017-09-25T18:02:04.094Z,75.10
2017-09-25T18:04:32.288Z,75.70
2017-09-25T18:07:00.474Z,76.70
2017-09-25T18:09:29.488Z,77.80
2017-09-25T18:11:57.663Z,77.70
2017-09-25T18:14:25.948Z,78.50
2017-09-25T18:16:54.192Z,79.00
2017-09-25T18:19:22.411Z,79.60
2017-09-25T18:21:50.598Z,80.50
2017-09-25T18:24:19.820Z,80.40
2017-09-25T18:26:48.785Z,80.80
2017-09-25T18:29:17.704Z,80.80
2017-09-25T18:31:46.692Z,81.70
2017-09-25T18:34:14.973Z,81.70
2017-09-25T18:36:43.226Z,82.00
2017-09-25T18:39:11.483Z,82.30
2017-09-25T18:41:39.691Z,82.70
2017-09-25T18:44:07.970Z,83.00
2017-09-25T18:46:37.383Z,84.00
2017-09-25T18:49:05.626Z,83.80
2017-09-25T18:51:33.814Z,84.40
2017-09-25T18:54:02.025Z,84.70
2017-09-25T18:56:30.286Z,85.10
2017-09-25T18:58:58.508Z,85.50
2017-09-25T19:01:26.766Z,85.80
2017-09-25T19:03:54.985Z,86.20
2017-09-25T19:06:23.204Z,86.60
2017-09-25T19:08:51.406Z,86.90
2017-09-25T19:11:19.746Z,87.00
2017-09-25T19:13:47.992Z,87.20
2017-09-25T19:16:16.956Z,87.50
2017-09-25T19:18:45.333Z,87.30
2017-09-25T19:21:13.512Z,87.60
2017-09-25T19:23:41.707Z,88.20
2017-09-25T19:26:10.700Z,88.80
2017-09-25T19:28:38.905Z,88.70
2017-09-25T19:31:07.140Z,89.00
2017-09-25T19:33:35.776Z,89.30
2017-09-25T19:36:04.158Z,89.30
2017-09-25T19:38:33.914Z,89.90
2017-09-25T19:41:02.107Z,90.30
2017-09-25T19:43:31.066Z,90.10
2017-09-25T19:45:59.298Z,90.10
2017-09-25T19:51:26.423Z,90.20
2017-09-25T19:53:59.348Z,90.40
2017-09-25T19:56:29.953Z,90.50
2017-09-25T19:58:58.172Z,90.50
2017-09-25T20:01:26.437Z,90.60
2017-09-25T20:03:54.636Z,90.80
2017-09-25T20:06:22.866Z,90.90
2017-09-25T20:08:51.057Z,91.00
2017-09-25T20:11:34.146Z,91.00
2017-09-25T20:17:00.543Z,91.10
2017-09-25T20:19:28.892Z,91.20
2017-09-25T20:21:57.625Z,91.40
2017-09-25T20:24:25.822Z,91.40
2017-09-25T20:26:54.789Z,91.80
2017-09-25T20:29:22.969Z,91.70
2017-09-25T20:31:51.182Z,91.70
2017-09-25T20:34:20.145Z,91.80
2017-09-25T20:36:48.502Z,91.80
2017-09-25T20:39:16.758Z,91.90
2017-09-25T20:41:54.843Z,92.00
2017-09-25T20:44:23.036Z,92.10
2017-09-25T20:46:51.274Z,92.10
2017-09-25T20:49:20.189Z,92.30
2017-09-25T20:51:48.473Z,92.30
2017-09-25T20:54:16.692Z,92.40
2017-09-25T20:56:45.629Z,93.00
2017-09-25T20:59:13.803Z,92.60
2017-09-25T21:01:41.977Z,92.80
2017-09-25T21:04:10.471Z,92.90
2017-09-25T21:06:38.644Z,92.90
2017-09-25T21:09:06.815Z,92.90
2017-09-25T21:11:34.978Z,92.90
2017-09-25T21:14:03.150Z,92.80
2017-09-25T21:16:31.333Z,92.80
2017-09-25T21:18:59.544Z,92.90
2017-09-25T21:21:27.760Z,92.90
2017-09-25T21:23:56.007Z,92.90
2017-09-25T21:29:22.146Z,93.00
2017-09-25T21:31:51.150Z,92.90
2017-09-25T21:34:20.091Z,93.00
2017-09-25T21:36:48.362Z,93.00
2017-09-25T21:39:16.630Z,93.20
2017-09-25T21:41:45.212Z,93.20
2017-09-25T21:44:13.415Z,93.20
2017-09-25T21:46:42.373Z,93.20
2017-09-25T21:49:10.548Z,93.40
2017-09-25T21:51:39.496Z,93.20
2017-09-25T21:54:07.788Z,93.20
2017-09-25T21:56:35.959Z,93.30
2017-09-25T21:59:04.181Z,93.30
2017-09-25T22:01:33.132Z,93.40
2017-09-25T22:04:01.608Z,93.40
2017-09-25T22:06:29.771Z,93.50
2017-09-25T22:08:57.943Z,93.50
2017-09-25T22:11:26.382Z,93.60
2017-09-25T22:13:54.556Z,93.60
2017-09-25T22:16:22.754Z,93.70
2017-09-25T22:18:51.696Z,93.80
2017-09-25T22:21:20.174Z,93.70
2017-09-25T22:23:50.022Z,93.70
2017-09-25T22:26:18.979Z,93.70
2017-09-25T22:28:47.238Z,93.70
2017-09-25T22:31:15.410Z,93.80
2017-09-25T22:33:43.608Z,93.70
2017-09-25T22:36:12.722Z,93.60
2017-09-25T22:38:40.921Z,93.70
2017-09-25T22:41:09.084Z,93.60
2017-09-25T22:43:53.080Z,93.90
2017-09-25T22:46:21.264Z,93.50
2017-09-25T22:48:49.721Z,93.50
2017-09-25T22:51:17.895Z,93.60
2017-09-25T22:53:46.319Z,93.60
2017-09-25T22:56:14.502Z,93.70
2017-09-25T22:58:43.457Z,93.70
2017-09-25T23:01:11.672Z,93.70
2017-09-25T23:03:44.625Z,93.90
2017-09-25T23:06:12.863Z,93.90
2017-09-25T23:08:41.034Z,94.10
2017-09-25T23:13:43.671Z,94.40
2017-09-25T23:16:12.150Z,94.40
2017-09-25T23:18:40.327Z,94.40
2017-09-25T23:21:08.501Z,94.40
2017-09-25T23:23:36.733Z,94.50
2017-09-25T23:26:04.903Z,94.60
2017-09-25T23:28:33.082Z,94.40
2017-09-25T23:31:01.355Z,94.30
2017-09-25T23:33:29.532Z,94.40
2017-09-25T23:35:57.694Z,94.40
2017-09-25T23:38:25.895Z,94.40
2017-09-25T23:40:54.061Z,94.40
2017-09-25T23:43:22.523Z,94.40
2017-09-25T23:45:50.699Z,94.20
2017-09-25T23:48:18.871Z,94.10
2017-09-25T23:50:47.059Z,94.00
2017-09-25T23:53:15.231Z,93.90
2017-09-25T23:55:43.411Z,93.90
2017-09-25T23:58:11.555Z,93.90
